createdAt,value
2023-02-16T00:00:44.618Z,119.68
2023-02-16T00:03:21.203Z,120.00
2023-02-16T00:05:49.248Z,120.38
2023-02-16T00:08:16.165Z,114.32
2023-02-16T00:11:03.726Z,120.72
2023-02-16T00:13:53.126Z,120.40
2023-02-16T00:16:22.313Z,116.68
2023-02-16T00:18:49.702Z,112.13
2023-02-16T00:21:18.885Z,120.45
2023-02-16T00:23:46.149Z,118.22
2023-02-16T00:26:19.481Z,117.93
2023-02-16T00:28:50.502Z,120.35
2023-02-16T00:31:24.156Z,119.40
2023-02-16T00:33:51.271Z,115.13
2023-02-16T00:36:21.205Z,119.32
2023-02-16T00:38:48.133Z,119.55
2023-02-16T00:41:39.315Z,120.57
2023-02-16T00:44:46.106Z,117.05
2023-02-16T00:47:15.971Z,114.22
2023-02-16T00:49:43.006Z,115.78
2023-02-16T00:52:30.750Z,114.63
2023-02-16T00:54:58.876Z,118.68
2023-02-16T00:57:27.010Z,114.07
2023-02-16T01:00:01.842Z,117.00
2023-02-16T01:02:29.528Z,118.10
2023-02-16T01:04:56.479Z,117.85
2023-02-16T01:07:42.881Z,120.85
2023-02-16T01:10:29.553Z,116.97
2023-02-16T01:12:56.505Z,124.32
2023-02-16T01:15:26.175Z,119.72
2023-02-16T01:17:53.056Z,121.18
2023-02-16T01:20:25.201Z,117.95
2023-02-16T01:22:52.398Z,122.18
2023-02-16T01:25:19.356Z,118.45
2023-02-16T01:27:46.691Z,119.28
2023-02-16T01:30:17.798Z,119.30
2023-02-16T01:32:51.502Z,119.82
2023-02-16T01:35:20.959Z,122.53
2023-02-16T01:37:48.642Z,119.17
2023-02-16T01:43:03.116Z,112.93
2023-02-16T01:45:35.913Z,112.53
2023-02-16T01:48:06.094Z,116.32
2023-02-16T01:53:45.430Z,106.35
2023-02-16T01:56:37.468Z,113.00
2023-02-16T01:59:16.405Z,109.05
2023-02-16T02:01:58.452Z,109.97
2023-02-16T02:07:29.209Z,109.00
2023-02-16T02:10:07.332Z,107.25
2023-02-16T02:12:52.486Z,108.97
2023-02-16T02:15:23.623Z,105.32
2023-02-16T02:17:50.766Z,105.55
2023-02-16T02:21:07.855Z,101.57
2023-02-16T02:23:56.269Z,98.05
2023-02-16T02:26:46.756Z,97.75
2023-02-16T02:29:36.764Z,100.55
2023-02-16T02:32:41.537Z,102.47
2023-02-16T02:35:44.147Z,94.50
2023-02-16T02:38:40.584Z,96.95
2023-02-16T02:41:57.735Z,96.88
2023-02-16T02:44:29.123Z,99.45
2023-02-16T02:46:56.394Z,100.15
2023-02-16T02:49:23.448Z,98.03
2023-02-16T02:51:51.431Z,104.05
2023-02-16T02:54:44.787Z,102.43
2023-02-16T02:57:46.938Z,100.05
2023-02-16T03:00:44.489Z,99.47
2023-02-16T03:03:21.881Z,100.70
2023-02-16T03:05:53.205Z,100.68
2023-02-16T03:08:24.266Z,98.80
2023-02-16T03:11:23.357Z,102.43
2023-02-16T03:13:57.187Z,103.65
2023-02-16T03:16:31.329Z,98.75
2023-02-16T03:19:17.816Z,97.93
2023-02-16T03:22:04.046Z,95.78
2023-02-16T03:24:51.748Z,93.43
2023-02-16T03:27:42.878Z,95.97
2023-02-16T03:30:11.892Z,97.15
2023-02-16T03:32:39.964Z,105.00
2023-02-16T03:35:08.760Z,106.93
2023-02-16T03:37:35.851Z,107.70
2023-02-16T03:40:21.327Z,110.63
2023-02-16T03:42:50.122Z,105.60
2023-02-16T03:45:17.905Z,112.68
2023-02-16T03:47:44.800Z,109.38
2023-02-16T03:50:11.964Z,109.65
2023-02-16T03:52:38.881Z,111.68
2023-02-16T03:55:06.023Z,104.47
2023-02-16T03:57:33.001Z,112.28
2023-02-16T04:00:00.136Z,108.32
2023-02-16T04:02:30.531Z,112.45
2023-02-16T04:07:24.546Z,107.38
2023-02-16T04:09:51.473Z,105.25
2023-02-16T04:12:36.591Z,114.05
2023-02-16T04:15:12.253Z,104.63
2023-02-16T04:17:39.588Z,101.20
2023-02-16T04:20:08.370Z,108.65
2023-02-16T04:22:35.305Z,105.95
2023-02-16T04:25:02.361Z,103.35
2023-02-16T04:27:29.257Z,103.68
2023-02-16T04:29:56.290Z,100.50
2023-02-16T04:32:23.356Z,95.82
2023-02-16T04:34:50.275Z,98.75
2023-02-16T04:37:17.480Z,97.90
2023-02-16T04:39:44.448Z,97.13
2023-02-16T04:42:11.343Z,99.07
2023-02-16T04:44:38.241Z,97.10
2023-02-16T04:47:05.274Z,93.53
2023-02-16T04:49:32.104Z,91.72
2023-02-16T04:51:59.027Z,91.90
2023-02-16T04:54:25.880Z,95.53
2023-02-16T04:56:52.865Z,95.28
2023-02-16T04:59:19.806Z,90.82
2023-02-16T05:01:46.886Z,94.25
2023-02-16T05:04:13.812Z,96.80
2023-02-16T05:06:40.979Z,94.60
2023-02-16T05:09:08.057Z,96.88
2023-02-16T05:11:53.982Z,96.32
2023-02-16T05:14:41.996Z,95.97
2023-02-16T05:17:23.592Z,96.55
2023-02-16T05:19:52.631Z,89.80
2023-02-16T05:22:20.754Z,98.28
2023-02-16T05:24:48.222Z,91.22
2023-02-16T05:27:18.888Z,98.32
2023-02-16T05:29:45.856Z,88.85
2023-02-16T05:32:12.826Z,94.35
2023-02-16T05:34:40.047Z,98.43
2023-02-16T05:37:06.952Z,98.95
2023-02-16T05:39:33.902Z,94.97
2023-02-16T05:42:00.802Z,97.75
2023-02-16T05:44:27.802Z,96.15
2023-02-16T05:46:54.842Z,95.78
2023-02-16T05:49:21.920Z,98.25
2023-02-16T05:51:48.914Z,97.18
2023-02-16T05:54:19.225Z,97.13
2023-02-16T05:59:14.961Z,93.43
2023-02-16T06:01:50.602Z,93.97
2023-02-16T06:04:18.960Z,98.32
2023-02-16T06:06:45.906Z,97.15
2023-02-16T06:09:12.923Z,97.30
2023-02-16T06:11:40.162Z,99.07
2023-02-16T06:14:18.967Z,100.22
2023-02-16T06:16:47.914Z,100.40
2023-02-16T06:19:17.039Z,100.30
2023-02-16T06:21:44.395Z,96.47
2023-02-16T06:24:13.465Z,93.63
2023-02-16T06:26:40.737Z,96.05
2023-02-16T06:29:08.286Z,96.82
2023-02-16T06:31:36.641Z,97.28
2023-02-16T06:34:04.914Z,101.05
2023-02-16T06:36:32.119Z,100.20
2023-02-16T06:38:59.042Z,103.85
2023-02-16T06:41:32.128Z,105.13
2023-02-16T06:44:04.736Z,108.38
2023-02-16T06:46:31.975Z,113.10
2023-02-16T06:48:59.286Z,116.63
2023-02-16T06:51:26.673Z,120.25
2023-02-16T06:53:53.890Z,119.28
2023-02-16T06:56:20.924Z,125.60
2023-02-16T06:58:48.115Z,126.22
2023-02-16T07:01:15.196Z,127.05
2023-02-16T07:03:42.215Z,124.40
2023-02-16T07:06:09.230Z,122.68
2023-02-16T07:08:36.199Z,122.68
2023-02-16T07:11:03.772Z,122.88
2023-02-16T07:13:31.211Z,119.60
2023-02-16T07:15:58.178Z,123.82
2023-02-16T07:18:25.028Z,120.32
2023-02-16T07:20:51.930Z,116.85
2023-02-16T07:23:18.751Z,123.28
2023-02-16T07:25:45.788Z,114.57
2023-02-16T07:28:12.863Z,118.28
2023-02-16T07:30:40.527Z,116.47
2023-02-16T07:33:07.598Z,114.97
2023-02-16T07:35:35.674Z,116.40
2023-02-16T07:38:03.986Z,109.03
2023-02-16T07:40:32.167Z,110.72
2023-02-16T07:43:08.565Z,106.30
2023-02-16T07:45:36.233Z,105.57
2023-02-16T07:48:03.241Z,100.68
2023-02-16T07:50:30.253Z,95.60
2023-02-16T07:52:57.090Z,99.20
2023-02-16T07:55:24.050Z,98.32
2023-02-16T07:57:54.884Z,95.43
2023-02-16T08:00:22.536Z,94.10
2023-02-16T08:02:49.909Z,94.55
2023-02-16T08:05:17.327Z,92.15
2023-02-16T08:07:46.724Z,95.65
2023-02-16T08:10:14.005Z,95.70
2023-02-16T08:12:40.824Z,92.65
2023-02-16T08:15:08.584Z,95.10
2023-02-16T08:17:35.815Z,96.05
2023-02-16T08:20:05.074Z,91.97
2023-02-16T08:22:32.959Z,95.38
2023-02-16T08:25:00.039Z,91.50
2023-02-16T08:27:27.108Z,93.35
2023-02-16T08:29:54.441Z,91.32
2023-02-16T08:32:21.418Z,88.18
2023-02-16T08:34:48.349Z,86.45
2023-02-16T08:37:15.227Z,87.20
2023-02-16T08:39:42.353Z,89.65
2023-02-16T08:42:11.786Z,90.43
2023-02-16T08:44:39.892Z,91.13
2023-02-16T08:47:06.996Z,88.85
2023-02-16T08:49:34.018Z,92.32
2023-02-16T08:52:01.730Z,86.82
2023-02-16T08:54:31.897Z,92.50
2023-02-16T08:57:00.140Z,92.07
2023-02-16T08:59:28.888Z,92.88
2023-02-16T09:01:58.254Z,91.75
2023-02-16T09:04:28.144Z,87.80
2023-02-16T09:06:56.405Z,93.80
2023-02-16T09:09:23.228Z,90.43
2023-02-16T09:11:50.577Z,92.13
2023-02-16T09:14:21.699Z,87.72
2023-02-16T09:16:49.170Z,86.70
2023-02-16T09:19:19.202Z,91.35
2023-02-16T09:21:47.509Z,92.65
2023-02-16T09:24:16.209Z,91.47
2023-02-16T09:26:44.859Z,91.10
2023-02-16T09:29:13.233Z,89.57
2023-02-16T09:31:40.339Z,87.30
2023-02-16T09:34:18.812Z,90.93
2023-02-16T09:36:47.434Z,87.53
2023-02-16T09:39:16.485Z,83.50
2023-02-16T09:42:04.305Z,81.93
2023-02-16T09:45:05.419Z,89.68
2023-02-16T09:47:35.176Z,87.25
2023-02-16T09:50:50.439Z,79.68
2023-02-16T09:53:29.441Z,78.63
2023-02-16T09:56:22.247Z,82.07
2023-02-16T09:59:04.723Z,78.57
2023-02-16T10:01:36.377Z,79.50
2023-02-16T10:04:09.132Z,78.35
2023-02-16T10:07:06.354Z,79.95
2023-02-16T10:09:34.415Z,79.85
2023-02-16T10:12:10.212Z,80.07
2023-02-16T10:14:45.866Z,78.35
2023-02-16T10:17:31.681Z,81.22
2023-02-16T10:20:13.339Z,80.68
2023-02-16T10:22:52.783Z,82.13
2023-02-16T10:25:41.864Z,79.90
2023-02-16T10:28:22.822Z,79.57
2023-02-16T10:31:15.179Z,80.55
2023-02-16T10:33:43.796Z,80.88
2023-02-16T10:36:32.507Z,84.72
2023-02-16T10:39:08.501Z,81.82
2023-02-16T10:41:43.015Z,79.47
2023-02-16T10:44:23.314Z,82.97
2023-02-16T10:47:04.220Z,81.93
2023-02-16T10:49:32.875Z,81.88
2023-02-16T10:52:02.807Z,81.45
2023-02-16T10:54:32.597Z,80.70
2023-02-16T10:57:01.510Z,77.22
2023-02-16T10:59:45.483Z,80.20
2023-02-16T11:02:47.418Z,74.38
2023-02-16T11:05:26.642Z,70.68
2023-02-16T11:07:57.119Z,72.00
2023-02-16T11:10:37.972Z,67.00
2023-02-16T11:13:05.649Z,64.65
2023-02-16T11:15:33.579Z,61.40
2023-02-16T11:18:05.379Z,56.85
2023-02-16T11:20:47.694Z,55.60
2023-02-16T11:23:17.585Z,54.65
2023-02-16T11:26:05.803Z,54.65
2023-02-16T11:28:46.671Z,58.17
2023-02-16T11:31:33.608Z,57.25
2023-02-16T11:34:12.319Z,57.75
2023-02-16T11:36:44.736Z,55.90
2023-02-16T11:39:14.500Z,57.20
2023-02-16T11:42:04.186Z,56.53
2023-02-16T11:44:38.267Z,58.00
2023-02-16T11:47:23.264Z,58.35
2023-02-16T11:50:07.176Z,57.80
2023-02-16T11:52:34.199Z,57.35
2023-02-16T11:55:02.213Z,55.50
2023-02-16T11:57:35.985Z,57.10
2023-02-16T12:00:17.134Z,55.90
2023-02-16T12:03:08.293Z,56.63
2023-02-16T12:05:53.227Z,53.63
2023-02-16T12:08:45.010Z,56.63
2023-02-16T12:11:42.505Z,58.28
2023-02-16T12:14:40.881Z,56.55
2023-02-16T12:17:45.299Z,57.88
2023-02-16T12:20:27.273Z,55.70
2023-02-16T12:23:17.459Z,56.65
2023-02-16T12:26:04.709Z,55.28
2023-02-16T12:29:03.046Z,56.42
2023-02-16T12:31:53.129Z,55.90
2023-02-16T12:37:25.221Z,55.30
2023-02-16T12:40:03.517Z,53.97
2023-02-16T12:42:51.259Z,55.65
2023-02-16T12:45:22.776Z,52.63
2023-02-16T12:48:30.741Z,51.03
2023-02-16T12:51:02.637Z,52.17
2023-02-16T12:53:49.260Z,49.88
2023-02-16T12:56:30.207Z,48.55
2023-02-16T12:59:26.496Z,49.78
2023-02-16T13:01:56.559Z,50.25
2023-02-16T13:07:22.796Z,44.55
2023-02-16T13:10:11.549Z,44.05
2023-02-16T13:12:54.148Z,47.33
2023-02-16T13:15:32.708Z,47.58
2023-02-16T13:18:05.495Z,44.08
2023-02-16T13:20:33.388Z,48.13
2023-02-16T13:23:18.172Z,47.00
2023-02-16T13:26:01.217Z,39.72
2023-02-16T13:28:43.179Z,40.13
2023-02-16T13:31:24.345Z,42.58
2023-02-16T13:34:04.194Z,41.85
2023-02-16T13:36:34.167Z,37.97
2023-02-16T13:42:20.485Z,36.38
2023-02-16T13:45:00.604Z,36.17
2023-02-16T13:47:34.722Z,36.65
2023-02-16T13:50:07.228Z,37.13
2023-02-16T13:52:39.426Z,35.40
2023-02-16T13:55:21.812Z,35.17
2023-02-16T13:57:52.682Z,34.13
2023-02-16T14:00:36.771Z,33.65
2023-02-16T14:03:07.723Z,33.78
2023-02-16T14:05:41.864Z,34.72
2023-02-16T14:08:11.066Z,33.53
2023-02-16T14:10:56.214Z,30.90
2023-02-16T14:13:31.781Z,31.67
2023-02-16T14:16:18.596Z,30.70
2023-02-16T14:19:03.752Z,31.00
2023-02-16T14:21:38.904Z,28.27
2023-02-16T14:24:11.770Z,29.80
2023-02-16T14:27:01.369Z,27.08
2023-02-16T14:29:56.903Z,30.08
2023-02-16T14:32:32.328Z,31.85
2023-02-16T14:35:08.366Z,31.65
2023-02-16T14:37:55.520Z,31.83
2023-02-16T14:40:34.770Z,31.73
2023-02-16T14:43:15.353Z,31.67
2023-02-16T14:46:13.372Z,33.38
2023-02-16T14:49:17.180Z,33.88
2023-02-16T14:51:51.529Z,32.20
2023-02-16T14:54:31.973Z,33.55
2023-02-16T14:57:07.252Z,31.83
2023-02-16T14:59:49.459Z,33.25
2023-02-16T15:02:48.259Z,34.47
2023-02-16T15:05:25.050Z,33.58
2023-02-16T15:08:02.583Z,32.63
2023-02-16T15:10:32.410Z,33.88
2023-02-16T15:12:59.711Z,35.22
2023-02-16T15:15:44.604Z,35.03
2023-02-16T15:18:34.005Z,34.65
2023-02-16T15:21:00.933Z,36.63
2023-02-16T15:23:34.866Z,35.30
2023-02-16T15:26:08.479Z,38.30
2023-02-16T15:28:38.470Z,37.05
2023-02-16T15:31:08.247Z,37.20
2023-02-16T15:33:41.831Z,39.53
2023-02-16T15:36:14.496Z,37.83
2023-02-16T15:38:52.357Z,40.00
2023-02-16T15:41:31.662Z,38.53
2023-02-16T15:44:00.122Z,39.90
2023-02-16T15:46:36.280Z,40.63
2023-02-16T15:49:27.275Z,41.92
2023-02-16T15:51:56.974Z,42.00
2023-02-16T15:54:30.864Z,43.22
2023-02-16T15:57:07.624Z,44.38
2023-02-16T15:59:49.045Z,43.88
2023-02-16T16:02:38.027Z,43.45
2023-02-16T16:05:07.556Z,43.88
2023-02-16T16:07:36.340Z,45.13
2023-02-16T16:10:13.777Z,45.38
2023-02-16T16:12:40.848Z,48.47
2023-02-16T16:15:15.897Z,50.42
2023-02-16T16:17:42.910Z,54.83
2023-02-16T16:20:28.076Z,57.42
2023-02-16T16:23:21.476Z,65.18
2023-02-16T16:25:48.842Z,69.80
2023-02-16T16:28:27.864Z,78.90
2023-02-16T16:31:11.961Z,82.28
2023-02-16T16:34:08.815Z,83.97
2023-02-16T16:36:38.606Z,84.82
2023-02-16T16:39:17.566Z,77.72
2023-02-16T16:42:07.126Z,81.68
2023-02-16T16:44:34.182Z,84.70
2023-02-16T16:47:19.439Z,86.13
2023-02-16T16:50:14.629Z,85.50
2023-02-16T16:52:47.754Z,84.18
2023-02-16T16:55:23.573Z,84.63
2023-02-16T16:58:01.009Z,86.15
2023-02-16T17:00:34.633Z,88.22
2023-02-16T17:03:04.129Z,86.90
2023-02-16T17:05:31.108Z,91.85
2023-02-16T17:07:58.132Z,89.22
2023-02-16T17:10:25.350Z,90.68
2023-02-16T17:12:56.180Z,92.95
2023-02-16T17:15:31.610Z,101.32
2023-02-16T17:17:59.206Z,107.82
2023-02-16T17:20:26.635Z,104.97
2023-02-16T17:22:53.679Z,100.03
2023-02-16T17:25:20.811Z,101.60
2023-02-16T17:27:47.801Z,102.72
2023-02-16T17:30:15.608Z,99.28
2023-02-16T17:32:42.555Z,103.32
2023-02-16T17:35:09.509Z,103.57
2023-02-16T17:37:36.470Z,106.38
2023-02-16T17:40:04.790Z,106.20
2023-02-16T17:42:31.867Z,106.90
2023-02-16T17:44:58.762Z,109.75
2023-02-16T17:47:25.801Z,105.95
2023-02-16T17:49:52.766Z,106.97
2023-02-16T17:52:19.939Z,116.30
2023-02-16T17:54:46.973Z,97.43
2023-02-16T17:57:14.039Z,101.85
2023-02-16T17:59:42.337Z,88.80
2023-02-16T18:02:11.409Z,83.50
2023-02-16T18:04:41.366Z,77.10
2023-02-16T18:07:13.435Z,82.03
2023-02-16T18:09:40.921Z,74.43
2023-02-16T18:12:08.447Z,67.35
2023-02-16T18:14:36.329Z,64.22
2023-02-16T18:17:05.005Z,66.50
2023-02-16T18:19:32.184Z,64.65
2023-02-16T18:22:00.951Z,68.13
2023-02-16T18:24:27.975Z,70.68
2023-02-16T18:26:55.594Z,75.35
2023-02-16T18:29:22.597Z,76.22
2023-02-16T18:31:49.801Z,78.13
2023-02-16T18:34:16.878Z,74.00
2023-02-16T18:36:43.904Z,75.57
2023-02-16T18:39:11.094Z,74.13
2023-02-16T18:41:38.108Z,76.93
2023-02-16T18:44:05.631Z,76.10
2023-02-16T18:46:32.796Z,75.53
2023-02-16T18:48:59.825Z,73.60
2023-02-16T18:51:29.513Z,73.25
2023-02-16T18:53:57.954Z,75.82
2023-02-16T18:56:25.140Z,72.90
2023-02-16T18:58:52.013Z,73.90
2023-02-16T19:01:31.177Z,74.20
2023-02-16T19:03:59.293Z,84.73
2023-02-16T19:06:26.445Z,80.43
2023-02-16T19:08:53.378Z,82.47
2023-02-16T19:11:21.154Z,88.03
2023-02-16T19:13:48.541Z,77.15
2023-02-16T19:16:17.081Z,77.53
2023-02-16T19:18:44.058Z,83.00
2023-02-16T19:21:13.530Z,80.20
2023-02-16T19:23:40.554Z,80.78
2023-02-16T19:26:13.199Z,82.88
2023-02-16T19:28:40.418Z,77.93
2023-02-16T19:31:15.229Z,78.68
2023-02-16T19:33:42.138Z,77.80
2023-02-16T19:36:10.825Z,79.85
2023-02-16T19:38:37.845Z,83.50
2023-02-16T19:41:28.925Z,80.68
2023-02-16T19:43:56.213Z,75.65
2023-02-16T19:46:23.854Z,74.13
2023-02-16T19:48:50.981Z,75.60
2023-02-16T19:51:18.461Z,76.82
2023-02-16T19:53:45.366Z,76.68
2023-02-16T19:56:15.863Z,76.78
2023-02-16T19:58:42.869Z,79.53
2023-02-16T20:01:24.918Z,72.97
2023-02-16T20:03:53.197Z,76.38
2023-02-16T20:06:26.287Z,75.82
2023-02-16T20:08:58.059Z,75.40
2023-02-16T20:11:27.053Z,73.72
2023-02-16T20:13:54.400Z,81.88
2023-02-16T20:16:21.977Z,82.72
2023-02-16T20:18:49.775Z,78.80
2023-02-16T20:21:22.235Z,87.15
2023-02-16T20:23:52.035Z,82.75
2023-02-16T20:26:23.206Z,84.05
2023-02-16T20:28:50.886Z,84.78
2023-02-16T20:31:43.605Z,82.63
2023-02-16T20:34:10.895Z,83.50
2023-02-16T20:36:38.051Z,83.28
2023-02-16T20:39:07.506Z,76.10
2023-02-16T20:41:34.530Z,77.57
2023-02-16T20:44:03.014Z,71.97
2023-02-16T20:46:30.032Z,73.63
2023-02-16T20:48:57.296Z,75.95
2023-02-16T20:51:24.808Z,75.68
2023-02-16T20:53:51.963Z,76.00
2023-02-16T20:56:24.311Z,75.15
2023-02-16T20:58:53.351Z,74.38
2023-02-16T21:01:22.294Z,74.47
2023-02-16T21:03:50.043Z,74.32
2023-02-16T21:06:17.592Z,77.00
2023-02-16T21:08:44.936Z,76.97
2023-02-16T21:11:12.252Z,74.40
2023-02-16T21:13:40.368Z,74.57
2023-02-16T21:16:08.634Z,77.95
2023-02-16T21:18:38.764Z,80.63
2023-02-16T21:21:08.063Z,81.63
2023-02-16T21:23:35.641Z,79.25
2023-02-16T21:26:05.218Z,81.28
2023-02-16T21:28:32.401Z,82.50
2023-02-16T21:31:09.885Z,80.95
2023-02-16T21:33:37.489Z,79.63
2023-02-16T21:36:15.738Z,81.70
2023-02-16T21:38:44.010Z,81.53
2023-02-16T21:41:26.905Z,83.18
2023-02-16T21:44:01.376Z,83.18
2023-02-16T21:46:31.043Z,87.03
2023-02-16T21:48:58.722Z,85.47
2023-02-16T21:51:31.377Z,83.70
2023-02-16T21:53:59.165Z,81.00
2023-02-16T21:56:35.649Z,79.28
2023-02-16T21:59:03.672Z,80.35
2023-02-16T22:01:33.384Z,79.22
2023-02-16T22:04:01.710Z,73.53
2023-02-16T22:06:34.841Z,61.47
2023-02-16T22:09:06.168Z,66.60
2023-02-16T22:11:33.261Z,60.80
2023-02-16T22:14:01.275Z,63.72
2023-02-16T22:16:30.396Z,64.18
2023-02-16T22:19:04.076Z,64.68
2023-02-16T22:21:31.893Z,64.55
2023-02-16T22:24:00.816Z,63.58
2023-02-16T22:26:33.110Z,61.22
2023-02-16T22:29:02.362Z,59.53
2023-02-16T22:31:29.503Z,60.73
2023-02-16T22:33:58.490Z,54.90
2023-02-16T22:36:26.247Z,52.75
2023-02-16T22:38:54.086Z,49.95
2023-02-16T22:41:21.927Z,47.20
2023-02-16T22:43:53.043Z,48.13
2023-02-16T22:46:19.962Z,47.75
2023-02-16T22:48:46.902Z,44.80
2023-02-16T22:51:16.331Z,39.42
2023-02-16T22:53:43.764Z,38.92
2023-02-16T22:56:13.886Z,40.65
2023-02-16T23:01:13.259Z,41.55
2023-02-16T23:03:40.577Z,44.33
2023-02-16T23:06:34.968Z,44.45
2023-02-16T23:09:14.022Z,44.25
2023-02-16T23:11:40.961Z,45.10
2023-02-16T23:14:16.365Z,44.45
2023-02-16T23:16:48.696Z,44.75
2023-02-16T23:19:19.080Z,44.25
2023-02-16T23:21:46.869Z,44.88
2023-02-16T23:24:17.193Z,42.78
2023-02-16T23:26:44.127Z,43.60
2023-02-16T23:29:11.793Z,44.50
2023-02-16T23:31:41.394Z,44.80
2023-02-16T23:34:09.136Z,44.25
2023-02-16T23:36:37.884Z,44.33
2023-02-16T23:39:10.598Z,41.55
2023-02-16T23:41:38.359Z,40.60
2023-02-16T23:44:06.015Z,38.53
2023-02-16T23:46:33.377Z,37.20
2023-02-16T23:49:00.170Z,36.83
2023-02-16T23:51:27.611Z,39.17
2023-02-16T23:53:54.891Z,36.38
2023-02-16T23:56:24.947Z,39.22
2023-02-16T23:58:52.729Z,41.80
